sensor_id;sensor_type;location;lat;lon;timestamp;P1;durP1;ratioP1;P2;durP2;ratioP2
81036;SDS011;70521;47.468;19.306;2024-02-14T00:02:33;26.52;;;25.23;;
81036;SDS011;70521;47.468;19.306;2024-02-14T00:05:34;25.02;;;23.77;;
81036;SDS011;70521;47.468;19.306;2024-02-14T00:08:35;32.35;;;30.65;;
81036;SDS011;70521;47.468;19.306;2024-02-14T00:11:36;28.08;;;26.67;;
81036;SDS011;70521;47.468;19.306;2024-02-14T00:14:37;25.10;;;23.67;;
81036;SDS011;70521;47.468;19.306;2024-02-14T00:17:38;28.20;;;26.80;;
81036;SDS011;70521;47.468;19.306;2024-02-14T00:20:39;22.75;;;21.30;;
81036;SDS011;70521;47.468;19.306;2024-02-14T00:23:40;27.83;;;26.42;;
81036;SDS011;70521;47.468;19.306;2024-02-14T00:26:41;33.85;;;32.22;;
81036;SDS011;70521;47.468;19.306;2024-02-14T00:29:42;25.10;;;23.90;;
81036;SDS011;70521;47.468;19.306;2024-02-14T00:32:45;29.23;;;27.85;;
81036;SDS011;70521;47.468;19.306;2024-02-14T00:35:46;28.00;;;26.70;;
81036;SDS011;70521;47.468;19.306;2024-02-14T00:38:47;30.35;;;28.75;;
81036;SDS011;70521;47.468;19.306;2024-02-14T00:41:48;24.50;;;23.17;;
81036;SDS011;70521;47.468;19.306;2024-02-14T00:44:49;25.40;;;24.02;;
81036;SDS011;70521;47.468;19.306;2024-02-14T00:47:50;22.17;;;20.98;;
81036;SDS011;70521;47.468;19.306;2024-02-14T00:50:51;27.98;;;26.50;;
81036;SDS011;70521;47.468;19.306;2024-02-14T00:53:52;11.35;;;10.57;;
81036;SDS011;70521;47.468;19.306;2024-02-14T00:56:53;24.80;;;23.40;;
81036;SDS011;70521;47.468;19.306;2024-02-14T00:59:54;22.75;;;21.55;;
81036;SDS011;70521;47.468;19.306;2024-02-14T01:02:58;19.67;;;18.73;;
81036;SDS011;70521;47.468;19.306;2024-02-14T01:05:59;15.77;;;14.80;;
81036;SDS011;70521;47.468;19.306;2024-02-14T01:09:00;22.55;;;21.45;;
81036;SDS011;70521;47.468;19.306;2024-02-14T01:12:02;24.83;;;23.63;;
81036;SDS011;70521;47.468;19.306;2024-02-14T01:15:03;21.75;;;20.65;;
81036;SDS011;70521;47.468;19.306;2024-02-14T01:18:08;23.52;;;22.33;;
81036;SDS011;70521;47.468;19.306;2024-02-14T01:21:09;20.85;;;19.92;;
81036;SDS011;70521;47.468;19.306;2024-02-14T01:24:09;15.27;;;14.38;;
81036;SDS011;70521;47.468;19.306;2024-02-14T01:27:10;13.73;;;12.93;;
81036;SDS011;70521;47.468;19.306;2024-02-14T01:30:11;19.55;;;18.45;;
81036;SDS011;70521;47.468;19.306;2024-02-14T01:33:12;22.42;;;21.23;;
81036;SDS011;70521;47.468;19.306;2024-02-14T01:36:13;18.10;;;17.05;;
81036;SDS011;70521;47.468;19.306;2024-02-14T01:39:14;20.52;;;19.52;;
81036;SDS011;70521;47.468;19.306;2024-02-14T01:42:15;18.63;;;17.73;;
81036;SDS011;70521;47.468;19.306;2024-02-14T01:45:16;28.63;;;27.42;;
81036;SDS011;70521;47.468;19.306;2024-02-14T01:48:26;20.48;;;19.48;;
81036;SDS011;70521;47.468;19.306;2024-02-14T01:51:27;20.27;;;19.27;;
81036;SDS011;70521;47.468;19.306;2024-02-14T01:54:29;23.58;;;22.48;;
81036;SDS011;70521;47.468;19.306;2024-02-14T01:57:30;27.13;;;25.98;;
81036;SDS011;70521;47.468;19.306;2024-02-14T02:00:31;29.30;;;28.08;;
81036;SDS011;70521;47.468;19.306;2024-02-14T02:03:36;18.63;;;17.55;;
81036;SDS011;70521;47.468;19.306;2024-02-14T02:06:38;20.13;;;19.05;;
81036;SDS011;70521;47.468;19.306;2024-02-14T02:09:39;17.23;;;16.25;;
81036;SDS011;70521;47.468;19.306;2024-02-14T02:12:40;19.92;;;18.98;;
81036;SDS011;70521;47.468;19.306;2024-02-14T02:16:01;21.23;;;20.33;;
81036;SDS011;70521;47.468;19.306;2024-02-14T02:19:25;21.13;;;20.23;;
81036;SDS011;70521;47.468;19.306;2024-02-14T02:22:46;21.60;;;20.70;;
81036;SDS011;70521;47.468;19.306;2024-02-14T02:26:08;19.23;;;18.17;;
81036;SDS011;70521;47.468;19.306;2024-02-14T02:29:29;25.77;;;24.63;;
81036;SDS011;70521;47.468;19.306;2024-02-14T02:32:30;20.17;;;19.27;;
81036;SDS011;70521;47.468;19.306;2024-02-14T02:35:31;21.60;;;20.60;;
81036;SDS011;70521;47.468;19.306;2024-02-14T02:38:52;31.15;;;29.95;;
81036;SDS011;70521;47.468;19.306;2024-02-14T02:42:13;18.35;;;17.48;;
81036;SDS011;70521;47.468;19.306;2024-02-14T02:45:35;27.05;;;26.05;;
81036;SDS011;70521;47.468;19.306;2024-02-14T02:48:56;24.42;;;23.33;;
81036;SDS011;70521;47.468;19.306;2024-02-14T02:51:57;21.27;;;20.20;;
81036;SDS011;70521;47.468;19.306;2024-02-14T02:55:15;24.25;;;23.08;;
81036;SDS011;70521;47.468;19.306;2024-02-14T02:58:22;34.70;;;33.45;;
81036;SDS011;70521;47.468;19.306;2024-02-14T03:01:23;17.67;;;16.92;;
81036;SDS011;70521;47.468;19.306;2024-02-14T03:04:45;14.15;;;13.45;;
81036;SDS011;70521;47.468;19.306;2024-02-14T03:08:07;20.77;;;19.75;;
81036;SDS011;70521;47.468;19.306;2024-02-14T03:11:28;20.08;;;19.20;;
81036;SDS011;70521;47.468;19.306;2024-02-14T03:14:49;13.00;;;12.20;;
81036;SDS011;70521;47.468;19.306;2024-02-14T03:18:07;21.20;;;20.17;;
81036;SDS011;70521;47.468;19.306;2024-02-14T03:21:10;16.13;;;15.43;;
81036;SDS011;70521;47.468;19.306;2024-02-14T03:24:12;29.13;;;28.17;;
81036;SDS011;70521;47.468;19.306;2024-02-14T03:27:13;21.20;;;20.30;;
81036;SDS011;70521;47.468;19.306;2024-02-14T03:30:14;19.35;;;18.52;;
81036;SDS011;70521;47.468;19.306;2024-02-14T03:33:17;22.40;;;21.33;;
81036;SDS011;70521;47.468;19.306;2024-02-14T03:36:18;24.80;;;23.70;;
81036;SDS011;70521;47.468;19.306;2024-02-14T03:39:19;35.00;;;33.70;;
81036;SDS011;70521;47.468;19.306;2024-02-14T03:42:20;22.98;;;21.98;;
81036;SDS011;70521;47.468;19.306;2024-02-14T03:45:21;27.25;;;26.25;;
81036;SDS011;70521;47.468;19.306;2024-02-14T03:48:22;22.08;;;21.17;;
81036;SDS011;70521;47.468;19.306;2024-02-14T03:51:23;26.17;;;25.20;;
81036;SDS011;70521;47.468;19.306;2024-02-14T03:54:24;27.08;;;25.95;;
81036;SDS011;70521;47.468;19.306;2024-02-14T03:57:25;34.20;;;32.88;;
81036;SDS011;70521;47.468;19.306;2024-02-14T04:00:29;26.52;;;25.45;;
81036;SDS011;70521;47.468;19.306;2024-02-14T04:03:30;27.48;;;26.38;;
81036;SDS011;70521;47.468;19.306;2024-02-14T04:06:31;25.77;;;24.58;;
81036;SDS011;70521;47.468;19.306;2024-02-14T04:09:32;30.13;;;28.92;;
81036;SDS011;70521;47.468;19.306;2024-02-14T04:12:33;18.90;;;17.98;;
81036;SDS011;70521;47.468;19.306;2024-02-14T04:15:34;30.85;;;29.50;;
81036;SDS011;70521;47.468;19.306;2024-02-14T04:18:43;21.48;;;20.45;;
81036;SDS011;70521;47.468;19.306;2024-02-14T04:21:45;21.38;;;20.58;;
81036;SDS011;70521;47.468;19.306;2024-02-14T04:24:46;29.30;;;28.10;;
81036;SDS011;70521;47.468;19.306;2024-02-14T04:27:47;22.33;;;21.42;;
81036;SDS011;70521;47.468;19.306;2024-02-14T04:30:48;19.58;;;18.67;;
81036;SDS011;70521;47.468;19.306;2024-02-14T04:33:54;34.78;;;33.38;;
81036;SDS011;70521;47.468;19.306;2024-02-14T04:36:55;29.15;;;28.00;;
81036;SDS011;70521;47.468;19.306;2024-02-14T04:39:57;33.58;;;32.38;;
81036;SDS011;70521;47.468;19.306;2024-02-14T04:42:58;35.80;;;34.35;;
81036;SDS011;70521;47.468;19.306;2024-02-14T04:45:58;30.17;;;28.90;;
81036;SDS011;70521;47.468;19.306;2024-02-14T04:49:00;23.67;;;22.65;;
81036;SDS011;70521;47.468;19.306;2024-02-14T04:52:04;24.33;;;23.20;;
81036;SDS011;70521;47.468;19.306;2024-02-14T04:55:05;29.90;;;28.55;;
81036;SDS011;70521;47.468;19.306;2024-02-14T04:58:07;25.73;;;24.65;;
81036;SDS011;70521;47.468;19.306;2024-02-14T05:01:08;30.20;;;28.83;;
81036;SDS011;70521;47.468;19.306;2024-02-14T05:04:09;30.90;;;29.70;;
81036;SDS011;70521;47.468;19.306;2024-02-14T05:07:10;37.17;;;35.67;;
81036;SDS011;70521;47.468;19.306;2024-02-14T05:10:11;29.55;;;28.25;;
81036;SDS011;70521;47.468;19.306;2024-02-14T05:13:12;29.90;;;28.70;;
81036;SDS011;70521;47.468;19.306;2024-02-14T05:16:13;26.80;;;25.70;;
81036;SDS011;70521;47.468;19.306;2024-02-14T05:19:18;37.25;;;35.85;;
81036;SDS011;70521;47.468;19.306;2024-02-14T05:22:21;28.02;;;26.83;;
81036;SDS011;70521;47.468;19.306;2024-02-14T05:25:23;27.88;;;26.33;;
81036;SDS011;70521;47.468;19.306;2024-02-14T05:28:30;22.00;;;21.10;;
81036;SDS011;70521;47.468;19.306;2024-02-14T05:31:44;23.65;;;22.45;;
81036;SDS011;70521;47.468;19.306;2024-02-14T05:34:45;38.65;;;37.30;;
81036;SDS011;70521;47.468;19.306;2024-02-14T05:37:46;28.90;;;27.52;;
81036;SDS011;70521;47.468;19.306;2024-02-14T05:40:50;26.60;;;25.48;;
81036;SDS011;70521;47.468;19.306;2024-02-14T05:43:51;26.10;;;24.90;;
81036;SDS011;70521;47.468;19.306;2024-02-14T05:46:52;29.67;;;28.13;;
81036;SDS011;70521;47.468;19.306;2024-02-14T05:49:52;31.70;;;30.25;;
81036;SDS011;70521;47.468;19.306;2024-02-14T05:52:54;30.98;;;29.35;;
81036;SDS011;70521;47.468;19.306;2024-02-14T05:55:55;41.05;;;39.35;;
81036;SDS011;70521;47.468;19.306;2024-02-14T05:58:55;29.58;;;28.13;;
81036;SDS011;70521;47.468;19.306;2024-02-14T06:01:56;29.50;;;28.20;;
81036;SDS011;70521;47.468;19.306;2024-02-14T06:04:57;23.45;;;22.42;;
81036;SDS011;70521;47.468;19.306;2024-02-14T06:07:58;30.75;;;29.38;;
81036;SDS011;70521;47.468;19.306;2024-02-14T06:10:59;42.85;;;41.28;;
81036;SDS011;70521;47.468;19.306;2024-02-14T06:14:00;28.33;;;27.15;;
81036;SDS011;70521;47.468;19.306;2024-02-14T06:17:01;32.85;;;31.48;;
81036;SDS011;70521;47.468;19.306;2024-02-14T06:20:02;35.70;;;34.28;;
81036;SDS011;70521;47.468;19.306;2024-02-14T06:23:07;30.08;;;28.88;;
81036;SDS011;70521;47.468;19.306;2024-02-14T06:26:08;25.60;;;24.48;;
81036;SDS011;70521;47.468;19.306;2024-02-14T06:29:09;25.50;;;24.40;;
81036;SDS011;70521;47.468;19.306;2024-02-14T06:32:13;35.65;;;34.25;;
81036;SDS011;70521;47.468;19.306;2024-02-14T06:35:14;35.75;;;34.10;;
81036;SDS011;70521;47.468;19.306;2024-02-14T06:38:16;20.48;;;19.48;;
81036;SDS011;70521;47.468;19.306;2024-02-14T06:41:17;34.47;;;33.17;;
81036;SDS011;70521;47.468;19.306;2024-02-14T06:44:17;23.98;;;22.60;;
81036;SDS011;70521;47.468;19.306;2024-02-14T06:47:19;28.52;;;27.13;;
81036;SDS011;70521;47.468;19.306;2024-02-14T06:50:19;19.17;;;17.92;;
81036;SDS011;70521;47.468;19.306;2024-02-14T06:53:23;29.73;;;28.25;;
81036;SDS011;70521;47.468;19.306;2024-02-14T06:56:24;35.25;;;33.58;;
81036;SDS011;70521;47.468;19.306;2024-02-14T06:59:25;33.70;;;32.13;;
81036;SDS011;70521;47.468;19.306;2024-02-14T07:02:26;20.48;;;19.33;;
81036;SDS011;70521;47.468;19.306;2024-02-14T07:05:28;23.75;;;22.42;;
81036;SDS011;70521;47.468;19.306;2024-02-14T07:08:32;24.67;;;23.38;;
81036;SDS011;70521;47.468;19.306;2024-02-14T07:11:33;25.88;;;24.48;;
81036;SDS011;70521;47.468;19.306;2024-02-14T07:14:34;21.15;;;19.90;;
81036;SDS011;70521;47.468;19.306;2024-02-14T07:17:35;22.60;;;21.52;;
81036;SDS011;70521;47.468;19.306;2024-02-14T07:20:36;13.45;;;12.48;;
81036;SDS011;70521;47.468;19.306;2024-02-14T07:23:37;13.35;;;12.48;;
81036;SDS011;70521;47.468;19.306;2024-02-14T07:26:38;12.75;;;11.90;;
81036;SDS011;70521;47.468;19.306;2024-02-14T07:29:41;9.98;;;8.95;;
81036;SDS011;70521;47.468;19.306;2024-02-14T07:32:42;13.77;;;12.82;;
81036;SDS011;70521;47.468;19.306;2024-02-14T07:35:44;26.15;;;23.40;;
81036;SDS011;70521;47.468;19.306;2024-02-14T07:38:45;16.42;;;15.25;;
81036;SDS011;70521;47.468;19.306;2024-02-14T07:41:46;15.88;;;14.77;;
81036;SDS011;70521;47.468;19.306;2024-02-14T07:44:47;11.80;;;11.00;;
81036;SDS011;70521;47.468;19.306;2024-02-14T07:47:51;11.00;;;10.02;;
81036;SDS011;70521;47.468;19.306;2024-02-14T07:50:52;9.55;;;8.82;;
81036;SDS011;70521;47.468;19.306;2024-02-14T07:53:52;10.10;;;9.20;;
81036;SDS011;70521;47.468;19.306;2024-02-14T07:56:53;9.68;;;8.88;;
81036;SDS011;70521;47.468;19.306;2024-02-14T07:59:54;8.98;;;8.18;;
81036;SDS011;70521;47.468;19.306;2024-02-14T08:02:55;10.75;;;9.85;;
81036;SDS011;70521;47.468;19.306;2024-02-14T08:05:56;8.90;;;8.00;;
81036;SDS011;70521;47.468;19.306;2024-02-14T08:08:57;9.52;;;8.73;;
81036;SDS011;70521;47.468;19.306;2024-02-14T08:12:03;11.57;;;10.77;;
81036;SDS011;70521;47.468;19.306;2024-02-14T08:15:04;10.35;;;9.35;;
81036;SDS011;70521;47.468;19.306;2024-02-14T08:18:07;10.35;;;9.45;;
81036;SDS011;70521;47.468;19.306;2024-02-14T08:21:08;13.18;;;10.98;;
81036;SDS011;70521;47.468;19.306;2024-02-14T08:24:09;11.82;;;10.75;;
81036;SDS011;70521;47.468;19.306;2024-02-14T08:27:10;13.48;;;12.20;;
81036;SDS011;70521;47.468;19.306;2024-02-14T08:30:11;18.10;;;16.52;;
81036;SDS011;70521;47.468;19.306;2024-02-14T08:33:13;14.35;;;12.95;;
81036;SDS011;70521;47.468;19.306;2024-02-14T08:36:14;13.00;;;11.60;;
81036;SDS011;70521;47.468;19.306;2024-02-14T08:39:15;12.52;;;11.32;;
81036;SDS011;70521;47.468;19.306;2024-02-14T08:42:16;12.65;;;11.35;;
81036;SDS011;70521;47.468;19.306;2024-02-14T08:45:17;11.75;;;10.77;;
81036;SDS011;70521;47.468;19.306;2024-02-14T08:48:18;11.60;;;10.43;;
81036;SDS011;70521;47.468;19.306;2024-02-14T08:51:20;12.38;;;11.18;;
81036;SDS011;70521;47.468;19.306;2024-02-14T08:54:21;11.07;;;10.10;;
81036;SDS011;70521;47.468;19.306;2024-02-14T08:57:23;10.02;;;9.13;;
81036;SDS011;70521;47.468;19.306;2024-02-14T09:00:24;6.72;;;5.72;;
81036;SDS011;70521;47.468;19.306;2024-02-14T09:03:26;8.40;;;7.68;;
81036;SDS011;70521;47.468;19.306;2024-02-14T09:06:26;8.55;;;7.72;;
81036;SDS011;70521;47.468;19.306;2024-02-14T09:09:27;8.07;;;7.35;;
81036;SDS011;70521;47.468;19.306;2024-02-14T09:12:28;6.88;;;6.28;;
81036;SDS011;70521;47.468;19.306;2024-02-14T09:15:29;6.20;;;5.70;;
81036;SDS011;70521;47.468;19.306;2024-02-14T09:18:31;7.25;;;6.70;;
81036;SDS011;70521;47.468;19.306;2024-02-14T09:21:33;7.20;;;6.60;;
81036;SDS011;70521;47.468;19.306;2024-02-14T09:24:36;7.53;;;6.85;;
81036;SDS011;70521;47.468;19.306;2024-02-14T09:27:37;7.25;;;6.63;;
81036;SDS011;70521;47.468;19.306;2024-02-14T09:30:38;7.78;;;6.45;;
81036;SDS011;70521;47.468;19.306;2024-02-14T09:33:39;6.32;;;5.72;;
81036;SDS011;70521;47.468;19.306;2024-02-14T09:36:40;7.07;;;6.45;;
81036;SDS011;70521;47.468;19.306;2024-02-14T09:39:42;6.95;;;6.45;;
81036;SDS011;70521;47.468;19.306;2024-02-14T09:42:46;7.45;;;6.75;;
81036;SDS011;70521;47.468;19.306;2024-02-14T09:48:51;7.82;;;7.15;;
81036;SDS011;70521;47.468;19.306;2024-02-14T09:51:53;6.50;;;5.90;;
81036;SDS011;70521;47.468;19.306;2024-02-14T09:54:54;5.80;;;5.30;;
81036;SDS011;70521;47.468;19.306;2024-02-14T09:57:55;7.15;;;6.55;;
81036;SDS011;70521;47.468;19.306;2024-02-14T10:00:57;6.40;;;5.90;;
81036;SDS011;70521;47.468;19.306;2024-02-14T10:03:57;6.57;;;6.03;;
81036;SDS011;70521;47.468;19.306;2024-02-14T10:06:58;6.00;;;5.40;;
81036;SDS011;70521;47.468;19.306;2024-02-14T10:10:05;5.70;;;5.20;;
81036;SDS011;70521;47.468;19.306;2024-02-14T10:13:06;6.65;;;5.35;;
81036;SDS011;70521;47.468;19.306;2024-02-14T10:16:07;6.68;;;6.07;;
81036;SDS011;70521;47.468;19.306;2024-02-14T10:19:15;5.70;;;5.20;;
81036;SDS011;70521;47.468;19.306;2024-02-14T10:22:16;6.05;;;5.55;;
81036;SDS011;70521;47.468;19.306;2024-02-14T10:25:18;7.40;;;5.40;;
81036;SDS011;70521;47.468;19.306;2024-02-14T10:28:20;6.10;;;5.55;;
81036;SDS011;70521;47.468;19.306;2024-02-14T10:31:25;5.78;;;5.28;;
81036;SDS011;70521;47.468;19.306;2024-02-14T10:34:26;5.78;;;5.28;;
81036;SDS011;70521;47.468;19.306;2024-02-14T10:37:28;5.95;;;5.38;;
81036;SDS011;70521;47.468;19.306;2024-02-14T10:40:31;6.85;;;5.38;;
81036;SDS011;70521;47.468;19.306;2024-02-14T10:43:32;6.03;;;5.53;;
81036;SDS011;70521;47.468;19.306;2024-02-14T10:46:35;7.32;;;6.63;;
81036;SDS011;70521;47.468;19.306;2024-02-14T10:49:37;6.18;;;5.57;;
81036;SDS011;70521;47.468;19.306;2024-02-14T10:52:40;6.50;;;5.90;;
81036;SDS011;70521;47.468;19.306;2024-02-14T10:55:42;6.35;;;5.75;;
81036;SDS011;70521;47.468;19.306;2024-02-14T10:58:46;7.72;;;7.13;;
81036;SDS011;70521;47.468;19.306;2024-02-14T11:01:48;8.05;;;7.15;;
81036;SDS011;70521;47.468;19.306;2024-02-14T11:04:49;7.53;;;6.45;;
81036;SDS011;70521;47.468;19.306;2024-02-14T11:07:53;10.13;;;8.25;;
81036;SDS011;70521;47.468;19.306;2024-02-14T11:10:55;8.52;;;7.88;;
81036;SDS011;70521;47.468;19.306;2024-02-14T11:13:59;8.27;;;7.53;;
81036;SDS011;70521;47.468;19.306;2024-02-14T11:17:01;11.00;;;10.00;;
81036;SDS011;70521;47.468;19.306;2024-02-14T11:20:11;11.88;;;10.73;;
81036;SDS011;70521;47.468;19.306;2024-02-14T11:23:12;10.20;;;9.25;;
81036;SDS011;70521;47.468;19.306;2024-02-14T11:26:15;10.40;;;9.65;;
81036;SDS011;70521;47.468;19.306;2024-02-14T11:29:16;11.88;;;10.98;;
81036;SDS011;70521;47.468;19.306;2024-02-14T11:32:17;10.73;;;9.95;;
81036;SDS011;70521;47.468;19.306;2024-02-14T11:35:18;9.13;;;8.43;;
81036;SDS011;70521;47.468;19.306;2024-02-14T11:38:20;7.95;;;7.45;;
81036;SDS011;70521;47.468;19.306;2024-02-14T11:41:21;8.18;;;7.68;;
81036;SDS011;70521;47.468;19.306;2024-02-14T11:44:22;7.63;;;7.13;;
81036;SDS011;70521;47.468;19.306;2024-02-14T11:47:23;7.55;;;6.95;;
81036;SDS011;70521;47.468;19.306;2024-02-14T11:50:24;10.38;;;9.65;;
81036;SDS011;70521;47.468;19.306;2024-02-14T11:53:25;10.15;;;9.55;;
81036;SDS011;70521;47.468;19.306;2024-02-14T11:56:29;9.38;;;8.68;;
81036;SDS011;70521;47.468;19.306;2024-02-14T11:59:34;14.93;;;14.13;;
81036;SDS011;70521;47.468;19.306;2024-02-14T12:02:35;8.23;;;7.60;;
81036;SDS011;70521;47.468;19.306;2024-02-14T12:05:36;7.97;;;7.38;;
81036;SDS011;70521;47.468;19.306;2024-02-14T12:08:37;9.80;;;9.20;;
81036;SDS011;70521;47.468;19.306;2024-02-14T12:11:39;9.55;;;8.95;;
81036;SDS011;70521;47.468;19.306;2024-02-14T12:14:44;10.35;;;9.50;;
81036;SDS011;70521;47.468;19.306;2024-02-14T12:17:50;8.38;;;7.88;;
81036;SDS011;70521;47.468;19.306;2024-02-14T12:20:51;11.27;;;10.40;;
81036;SDS011;70521;47.468;19.306;2024-02-14T12:23:58;7.97;;;7.32;;
81036;SDS011;70521;47.468;19.306;2024-02-14T12:26:59;8.82;;;8.32;;
81036;SDS011;70521;47.468;19.306;2024-02-14T12:30:04;7.20;;;6.78;;
81036;SDS011;70521;47.468;19.306;2024-02-14T12:33:05;7.55;;;6.95;;
81036;SDS011;70521;47.468;19.306;2024-02-14T12:36:10;11.00;;;10.35;;
81036;SDS011;70521;47.468;19.306;2024-02-14T12:39:12;9.00;;;8.50;;
81036;SDS011;70521;47.468;19.306;2024-02-14T12:42:13;8.25;;;7.75;;
81036;SDS011;70521;47.468;19.306;2024-02-14T12:45:14;7.75;;;7.22;;
81036;SDS011;70521;47.468;19.306;2024-02-14T12:48:21;9.43;;;8.82;;
81036;SDS011;70521;47.468;19.306;2024-02-14T12:51:22;7.03;;;6.63;;
81036;SDS011;70521;47.468;19.306;2024-02-14T12:54:29;8.13;;;7.55;;
81036;SDS011;70521;47.468;19.306;2024-02-14T12:57:30;8.40;;;8.00;;
81036;SDS011;70521;47.468;19.306;2024-02-14T13:00:31;8.32;;;7.78;;
81036;SDS011;70521;47.468;19.306;2024-02-14T13:03:35;8.30;;;7.70;;
81036;SDS011;70521;47.468;19.306;2024-02-14T13:06:36;7.90;;;7.25;;
81036;SDS011;70521;47.468;19.306;2024-02-14T13:09:40;7.53;;;7.03;;
81036;SDS011;70521;47.468;19.306;2024-02-14T13:12:41;7.55;;;6.95;;
81036;SDS011;70521;47.468;19.306;2024-02-14T13:15:44;9.20;;;8.80;;
81036;SDS011;70521;47.468;19.306;2024-02-14T13:18:45;7.07;;;6.68;;
81036;SDS011;70521;47.468;19.306;2024-02-14T13:21:46;5.75;;;5.35;;
81036;SDS011;70521;47.468;19.306;2024-02-14T13:24:48;6.47;;;6.13;;
81036;SDS011;70521;47.468;19.306;2024-02-14T13:27:49;5.82;;;5.38;;
81036;SDS011;70521;47.468;19.306;2024-02-14T13:30:50;6.03;;;5.63;;
81036;SDS011;70521;47.468;19.306;2024-02-14T13:33:51;5.40;;;5.00;;
81036;SDS011;70521;47.468;19.306;2024-02-14T13:36:52;5.15;;;4.90;;
81036;SDS011;70521;47.468;19.306;2024-02-14T13:39:53;3.97;;;3.67;;
81036;SDS011;70521;47.468;19.306;2024-02-14T13:42:54;5.30;;;5.00;;
81036;SDS011;70521;47.468;19.306;2024-02-14T13:45:55;5.35;;;5.05;;
81036;SDS011;70521;47.468;19.306;2024-02-14T13:48:56;4.78;;;4.47;;
81036;SDS011;70521;47.468;19.306;2024-02-14T13:51:57;5.53;;;5.20;;
81036;SDS011;70521;47.468;19.306;2024-02-14T13:54:58;5.47;;;5.13;;
81036;SDS011;70521;47.468;19.306;2024-02-14T13:57:59;5.72;;;5.32;;
81036;SDS011;70521;47.468;19.306;2024-02-14T14:01:00;6.93;;;6.55;;
81036;SDS011;70521;47.468;19.306;2024-02-14T14:04:01;6.75;;;6.20;;
81036;SDS011;70521;47.468;19.306;2024-02-14T14:07:02;6.28;;;5.75;;
81036;SDS011;70521;47.468;19.306;2024-02-14T14:10:05;5.55;;;5.22;;
81036;SDS011;70521;47.468;19.306;2024-02-14T14:13:06;6.55;;;6.13;;
81036;SDS011;70521;47.468;19.306;2024-02-14T14:16:07;6.20;;;5.80;;
81036;SDS011;70521;47.468;19.306;2024-02-14T14:19:08;7.20;;;6.70;;
81036;SDS011;70521;47.468;19.306;2024-02-14T14:22:09;6.05;;;5.75;;
81036;SDS011;70521;47.468;19.306;2024-02-14T14:25:11;7.00;;;6.70;;
81036;SDS011;70521;47.468;19.306;2024-02-14T14:28:12;7.65;;;7.05;;
81036;SDS011;70521;47.468;19.306;2024-02-14T14:31:14;7.45;;;6.85;;
81036;SDS011;70521;47.468;19.306;2024-02-14T14:34:15;4.97;;;4.28;;
81036;SDS011;70521;47.468;19.306;2024-02-14T14:37:16;5.85;;;5.55;;
81036;SDS011;70521;47.468;19.306;2024-02-14T14:40:17;4.35;;;4.05;;
81036;SDS011;70521;47.468;19.306;2024-02-14T14:43:19;6.90;;;6.47;;
81036;SDS011;70521;47.468;19.306;2024-02-14T14:46:22;6.72;;;6.30;;
81036;SDS011;70521;47.468;19.306;2024-02-14T14:49:23;10.10;;;9.30;;
81036;SDS011;70521;47.468;19.306;2024-02-14T14:52:24;8.35;;;7.55;;
81036;SDS011;70521;47.468;19.306;2024-02-14T14:55:25;8.20;;;7.63;;
81036;SDS011;70521;47.468;19.306;2024-02-14T14:58:26;7.38;;;6.80;;
81036;SDS011;70521;47.468;19.306;2024-02-14T15:01:29;7.68;;;7.22;;
81036;SDS011;70521;47.468;19.306;2024-02-14T15:04:30;9.07;;;8.38;;
81036;SDS011;70521;47.468;19.306;2024-02-14T15:07:31;9.18;;;8.52;;
81036;SDS011;70521;47.468;19.306;2024-02-14T15:10:32;11.95;;;11.10;;
81036;SDS011;70521;47.468;19.306;2024-02-14T15:13:33;9.73;;;8.80;;
81036;SDS011;70521;47.468;19.306;2024-02-14T15:16:34;9.80;;;9.20;;
81036;SDS011;70521;47.468;19.306;2024-02-14T15:19:35;11.82;;;11.02;;
81036;SDS011;70521;47.468;19.306;2024-02-14T15:22:36;9.50;;;8.90;;
81036;SDS011;70521;47.468;19.306;2024-02-14T15:25:37;9.75;;;8.95;;
81036;SDS011;70521;47.468;19.306;2024-02-14T15:28:38;11.18;;;10.20;;
81036;SDS011;70521;47.468;19.306;2024-02-14T15:31:42;10.50;;;9.77;;
81036;SDS011;70521;47.468;19.306;2024-02-14T15:35:02;12.68;;;11.68;;
81036;SDS011;70521;47.468;19.306;2024-02-14T15:38:05;20.40;;;19.15;;
81036;SDS011;70521;47.468;19.306;2024-02-14T15:41:06;14.13;;;13.15;;
81036;SDS011;70521;47.468;19.306;2024-02-14T15:44:08;11.35;;;10.35;;
81036;SDS011;70521;47.468;19.306;2024-02-14T15:47:09;12.55;;;11.63;;
81036;SDS011;70521;47.468;19.306;2024-02-14T15:50:11;12.93;;;12.02;;
81036;SDS011;70521;47.468;19.306;2024-02-14T15:53:12;15.77;;;14.48;;
81036;SDS011;70521;47.468;19.306;2024-02-14T15:56:13;15.65;;;14.35;;
81036;SDS011;70521;47.468;19.306;2024-02-14T15:59:14;15.43;;;13.93;;
81036;SDS011;70521;47.468;19.306;2024-02-14T16:02:16;17.55;;;16.35;;
81036;SDS011;70521;47.468;19.306;2024-02-14T16:05:17;18.48;;;17.08;;
81036;SDS011;70521;47.468;19.306;2024-02-14T16:08:18;19.17;;;17.92;;
81036;SDS011;70521;47.468;19.306;2024-02-14T16:11:19;16.98;;;15.68;;
81036;SDS011;70521;47.468;19.306;2024-02-14T16:14:20;22.27;;;20.63;;
81036;SDS011;70521;47.468;19.306;2024-02-14T16:17:21;20.27;;;18.73;;
81036;SDS011;70521;47.468;19.306;2024-02-14T16:20:22;24.80;;;22.90;;
81036;SDS011;70521;47.468;19.306;2024-02-14T16:23:23;17.05;;;15.52;;
81036;SDS011;70521;47.468;19.306;2024-02-14T16:26:24;22.20;;;20.42;;
81036;SDS011;70521;47.468;19.306;2024-02-14T16:29:25;19.20;;;17.60;;
81036;SDS011;70521;47.468;19.306;2024-02-14T16:32:26;16.35;;;15.07;;
81036;SDS011;70521;47.468;19.306;2024-02-14T16:35:27;16.33;;;15.13;;
81036;SDS011;70521;47.468;19.306;2024-02-14T16:38:28;16.13;;;14.88;;
81036;SDS011;70521;47.468;19.306;2024-02-14T16:41:29;17.65;;;16.25;;
81036;SDS011;70521;47.468;19.306;2024-02-14T16:44:31;21.02;;;19.33;;
81036;SDS011;70521;47.468;19.306;2024-02-14T16:47:33;22.70;;;20.77;;
81036;SDS011;70521;47.468;19.306;2024-02-14T16:50:35;24.90;;;22.85;;
81036;SDS011;70521;47.468;19.306;2024-02-14T16:53:36;22.63;;;20.73;;
81036;SDS011;70521;47.468;19.306;2024-02-14T16:56:37;19.65;;;18.05;;
81036;SDS011;70521;47.468;19.306;2024-02-14T16:59:39;20.73;;;19.23;;
81036;SDS011;70521;47.468;19.306;2024-02-14T17:02:46;16.30;;;14.75;;
81036;SDS011;70521;47.468;19.306;2024-02-14T17:05:47;18.92;;;17.45;;
81036;SDS011;70521;47.468;19.306;2024-02-14T17:08:48;17.52;;;16.13;;
81036;SDS011;70521;47.468;19.306;2024-02-14T17:11:49;16.05;;;14.38;;
81036;SDS011;70521;47.468;19.306;2024-02-14T17:14:51;19.58;;;17.95;;
81036;SDS011;70521;47.468;19.306;2024-02-14T17:17:53;20.90;;;19.30;;
81036;SDS011;70521;47.468;19.306;2024-02-14T17:20:54;20.30;;;18.50;;
81036;SDS011;70521;47.468;19.306;2024-02-14T17:23:55;24.35;;;22.38;;
81036;SDS011;70521;47.468;19.306;2024-02-14T17:26:56;29.48;;;26.38;;
81036;SDS011;70521;47.468;19.306;2024-02-14T17:29:57;23.75;;;21.73;;
81036;SDS011;70521;47.468;19.306;2024-02-14T17:32:59;21.95;;;20.25;;
81036;SDS011;70521;47.468;19.306;2024-02-14T17:36:02;17.85;;;16.40;;
81036;SDS011;70521;47.468;19.306;2024-02-14T17:39:05;19.33;;;17.90;;
81036;SDS011;70521;47.468;19.306;2024-02-14T17:42:05;19.75;;;18.25;;
81036;SDS011;70521;47.468;19.306;2024-02-14T17:45:07;18.58;;;17.08;;
81036;SDS011;70521;47.468;19.306;2024-02-14T17:48:11;19.50;;;18.13;;